OAZ weather

Camp Bastion Airport
Helmand Province, Afghanistan

Public forecast

Using degrees Celsius for public forecast. Weather courtesy of forecast.io.

METAR (pilot weather report)

Closest report is Kandahar Airport, 85.7 nm (158.7 km) ESE. Retrieved 2019/06/25 14:56 UTC (15 minutes ago):

OAKN 251456Z 27003KT 8000 HZ CLR 33/01 A2974 RMK AO2A SLP010 WND DATA ESTMD Q1007 PA3472 DA6367 T03340007

TAF (pilot weather forecast)

Closest forecast is Kandahar Airport, 85.7 nm (158.7 km) ESE. Retrieved 2019/06/25 15:09 UTC (2 minutes ago):

TAF TAF OAKN 251500Z 2515/2621 VRB06KT 9000 HZ SKC QNH2971INS BECMG 2608/2609 26010G15KT 8000 HZ SKC QNH2970INS BECMG 2618/2619 VRB06KT 9000 HZ SKC QNH2973INS TX40/2610Z TN23/2601Z